Time;durP1;ratioP1;P1;durP2;ratioP2;P2;SDS_P1;SDS_P2;PMS_P1;PMS_P2;Temp;Humidity;BMP_temperature;BMP_pressure;BME280_temperature;BME280_humidity;BME280_pressure;Samples;Min_cycle;Max_cycle;Signal;HPM_P1;HPM_P2
2023/04/18 00:00:29;;;;;;;18.25;11.48;;;;;;;11.15;91.25;99255.22;3145843;28;20057;-65
2023/04/18 00:02:01;;;;;;;16.77;11.38;;;;;;;11.15;91.35;99261.28;3147264;28;20103;-66
2023/04/18 00:03:33;;;;;;;20.52;12.30;;;;;;;11.07;91.01;99245.25;3146960;28;20056;-65
2023/04/18 00:05:06;;;;;;;20.27;11.65;;;;;;;11.15;91.46;99263.91;3140493;28;20075;-65
2023/04/18 00:06:38;;;;;;;16.40;11.45;;;;;;;11.13;91.08;99263.13;3143509;28;20504;-65
2023/04/18 00:08:10;;;;;;;20.10;12.10;;;;;;;11.14;91.42;99256.16;3146611;28;20840;-66
2023/04/18 00:09:41;;;;;;;18.60;13.00;;;;;;;11.11;91.46;99259.75;3146564;28;20103;-66
2023/04/18 00:11:15;;;;;;;21.40;13.02;;;;;;;11.12;91.48;99258.00;3147188;28;20057;-67
2023/04/18 00:12:47;;;;;;;23.88;13.85;;;;;;;11.10;91.23;99268.53;3146815;28;20044;-66
2023/04/18 00:14:20;;;;;;;22.55;12.60;;;;;;;11.10;91.29;99263.31;3137991;28;20140;-65
2023/04/18 00:15:52;;;;;;;22.38;12.95;;;;;;;11.10;91.34;99265.91;3138978;28;20132;-66
2023/04/18 00:17:26;;;;;;;21.77;12.68;;;;;;;11.09;91.62;99261.63;3147382;28;20049;-65
2023/04/18 00:18:56;;;;;;;;;;;;;;;11.03;91.26;99254.16;3137642;28;20068;-65
2023/04/18 00:20:29;;;;;;;20.75;12.35;;;;;;;11.04;91.68;99265.44;3136355;28;19921;-65
2023/04/18 00:22:00;;;;;;;24.35;13.93;;;;;;;11.05;91.41;99270.53;3146737;28;20123;-65
2023/04/18 00:23:33;;;;;;;22.00;14.65;;;;;;;11.04;91.51;99262.81;3146926;28;20045;-65
2023/04/18 00:25:05;;;;;;;20.65;14.05;;;;;;;11.05;91.41;99260.09;3147281;28;20814;-65
2023/04/18 00:26:39;;;;;;;22.55;14.20;;;;;;;11.07;91.69;99265.25;3146274;28;20505;-65
2023/04/18 00:28:10;;;;;;;20.17;12.98;;;;;;;11.05;91.54;99269.69;3143336;28;20053;-64
2023/04/18 00:29:42;;;;;;;23.60;13.60;;;;;;;10.97;91.69;99251.88;3137465;28;20041;-65
2023/04/18 00:31:13;;;;;;;23.65;13.73;;;;;;;11.01;91.91;99252.56;3140499;28;20045;-65
2023/04/18 00:32:45;;;;;;;22.85;14.05;;;;;;;11.07;92.02;99273.06;3146442;28;20149;-66
2023/04/18 00:34:16;;;;;;;22.40;13.18;;;;;;;11.03;91.66;99266.31;3146098;28;20060;-65
2023/04/18 00:35:47;;;;;;;21.30;13.30;;;;;;;11.01;92.18;99270.81;3134492;28;20117;-66
2023/04/18 00:37:19;;;;;;;23.25;14.55;;;;;;;11.01;92.07;99268.19;3122146;28;20054;-65
2023/04/18 00:38:51;;;;;;;21.23;13.60;;;;;;;11.01;91.85;99265.59;3137988;28;20052;-66
2023/04/18 00:40:23;;;;;;;23.45;15.35;;;;;;;11.01;92.05;99270.81;3145320;28;20098;-66
2023/04/18 00:41:56;;;;;;;23.40;15.38;;;;;;;11.01;91.93;99270.81;3146088;28;20060;-65
2023/04/18 00:43:28;;;;;;;25.15;14.98;;;;;;;10.93;91.68;99269.44;3145872;28;20052;-65
2023/04/18 00:45:00;;;;;;;29.08;15.00;;;;;;;10.91;91.99;99273.06;3135009;28;20540;-65
2023/04/18 00:46:32;;;;;;;24.33;14.65;;;;;;;10.89;91.97;99267.94;3142350;28;20148;-65
2023/04/18 00:48:04;;;;;;;26.33;15.27;;;;;;;10.68;92.16;99230.91;3146503;28;20505;-66
2023/04/18 00:49:35;;;;;;;29.35;15.60;;;;;;;10.90;92.03;99269.63;3139512;28;20053;-66
2023/04/18 00:51:07;;;;;;;29.70;15.27;;;;;;;10.84;92.10;99263.91;3130225;28;20045;-66
2023/04/18 00:52:39;;;;;;;23.95;15.18;;;;;;;10.91;92.34;99265.25;3129982;28;20147;-66
2023/04/18 00:54:12;;;;;;;27.20;15.95;;;;;;;10.92;92.17;99278.19;3136306;28;20060;-66
2023/04/18 00:55:43;;;;;;;32.55;17.58;;;;;;;10.93;92.19;99263.41;3137488;28;20055;-66
2023/04/18 00:57:16;;;;;;;29.02;17.00;;;;;;;10.92;92.16;99265.16;3128495;28;20455;-66
2023/04/18 00:58:48;;;;;;;33.90;17.77;;;;;;;10.92;91.76;99264.34;3132070;28;20120;-66
2023/04/18 01:00:20;;;;;;;27.40;17.00;;;;;;;10.91;92.14;99258.28;3137737;28;20492;-65
2023/04/18 01:01:52;;;;;;;28.67;17.55;;;;;;;10.90;92.28;99260.97;3136520;28;20075;-66
2023/04/18 01:03:25;;;;;;;34.33;18.65;;;;;;;10.92;91.97;99253.91;3136726;28;20514;-66
2023/04/18 01:04:58;;;;;;;29.23;18.33;;;;;;;10.86;91.98;99247.28;3132026;28;20055;-65
2023/04/18 01:06:30;;;;;;;36.03;19.45;;;;;;;10.90;92.36;99256.59;3112240;28;20053;-66
2023/04/18 01:08:03;;;;;;;31.75;18.10;;;;;;;10.89;91.97;99265.34;3135518;28;20783;-65
2023/04/18 01:09:36;;;;;;;38.97;19.33;;;;;;;10.89;92.19;99256.69;3135692;28;21423;-66
2023/04/18 01:11:08;;;;;;;33.85;20.30;;;;;;;10.87;92.36;99258.53;3136638;28;20052;-66
2023/04/18 01:12:41;;;;;;;29.20;18.77;;;;;;;10.47;92.19;99201.66;3135952;28;20048;-65
2023/04/18 01:14:13;;;;;;;36.20;19.33;;;;;;;10.81;92.55;99261.47;3130225;28;20131;-65
2023/04/18 01:15:46;;;;;;;30.13;18.60;;;;;;;10.82;92.39;99263.97;3133021;28;20152;-65
2023/04/18 01:17:18;;;;;;;36.53;18.73;;;;;;;10.82;92.51;99263.13;3137047;28;20058;-66
2023/04/18 01:18:49;;;;;;;33.53;17.58;;;;;;;10.82;92.59;99269.19;3136370;28;20437;-65
2023/04/18 01:20:22;;;;;;;35.83;19.85;;;;;;;10.82;92.51;99258.78;3134180;28;20223;-65
2023/04/18 01:21:54;;;;;;;31.40;19.08;;;;;;;10.79;92.60;99260.72;3132237;28;20048;-66
2023/04/18 01:23:26;;;;;;;39.38;19.58;;;;;;;10.76;92.70;99266.09;3129687;28;20063;-66
2023/04/18 01:24:59;;;;;;;35.63;20.02;;;;;;;10.73;92.83;99263.66;3128863;28;20052;-66
2023/04/18 01:26:31;;;;;;;34.33;19.23;;;;;;;10.70;92.85;99259.44;3136074;28;20060;-66
2023/04/18 01:28:03;;;;;;;35.05;19.55;;;;;;;10.69;92.98;99260.38;3131762;28;20087;-66
2023/04/18 01:29:35;;;;;;;32.88;19.52;;;;;;;10.66;92.77;99255.34;3136680;28;20506;-66
2023/04/18 01:31:06;;;;;;;40.67;21.77;;;;;;;10.64;93.14;99251.97;3129595;28;20052;-66
2023/04/18 01:32:38;;;;;;;37.72;20.73;;;;;;;10.63;93.19;99247.69;3136382;28;20517;-66
2023/04/18 01:34:10;;;;;;;36.85;19.95;;;;;;;10.60;93.05;99250.47;3136644;28;20503;-66
2023/04/18 01:35:42;;;;;;;37.08;20.13;;;;;;;10.60;93.27;99250.47;3123018;28;20057;-65
2023/04/18 01:37:13;;;;;;;36.25;18.85;;;;;;;10.56;93.45;99249.78;3125314;28;20057;-65
2023/04/18 01:38:44;;;;;;;34.55;18.77;;;;;;;10.59;93.19;99254.84;3127424;28;20048;-65
2023/04/18 01:40:18;;;;;;;38.10;19.10;;;;;;;10.59;93.34;99251.38;3134187;28;20479;-65
2023/04/18 01:41:50;;;;;;;34.50;18.52;;;;;;;10.57;93.28;99254.06;3135238;28;20578;-65
2023/04/18 01:43:22;;;;;;;37.15;19.67;;;;;;;10.58;93.41;99247.94;3132864;28;20110;-65
2023/04/18 01:44:53;;;;;;;38.97;19.70;;;;;;;10.56;93.36;99254.13;3136481;28;20058;-65
2023/04/18 01:46:25;;;;;;;37.28;19.33;;;;;;;10.60;93.64;99260.88;3136266;28;20088;-65
2023/04/18 01:47:56;;;;;;;35.70;18.60;;;;;;;10.59;93.30;99259.19;3136171;28;20523;-65
2023/04/18 01:49:28;;;;;;;34.17;20.13;;;;;;;10.59;93.19;99259.19;3134195;28;20185;-65
2023/04/18 01:51:00;;;;;;;30.73;18.52;;;;;;;10.57;93.52;99261.03;3128716;28;20860;-65
2023/04/18 01:52:31;;;;;;;40.40;19.42;;;;;;;10.59;93.72;99259.19;3136214;28;20614;-65
2023/04/18 01:54:03;;;;;;;34.83;18.23;;;;;;;10.62;93.55;99264.25;3135462;28;20524;-65
2023/04/18 01:55:35;;;;;;;40.08;20.63;;;;;;;10.64;93.30;99259.78;3136603;28;20512;-65
2023/04/18 01:57:07;;;;;;;49.78;22.27;;;;;;;10.62;93.66;99262.47;3126161;28;20075;-65
2023/04/18 01:58:40;;;;;;;40.05;21.30;;;;;;;10.64;93.44;99262.38;3135411;28;20281;-65
2023/04/18 02:00:15;;;;;;;37.78;19.85;;;;;;;10.61;93.44;99265.97;3136751;28;20560;-65
2023/04/18 02:01:47;;;;;;;38.53;21.20;;;;;;;10.57;93.46;99269.69;3135659;28;20083;-64
2023/04/18 02:03:19;;;;;;;36.17;20.30;;;;;;;10.51;93.67;99264.81;3137006;28;20174;-64
2023/04/18 02:04:51;;;;;;;37.10;19.80;;;;;;;10.51;93.61;99266.59;3132014;28;20462;-65
2023/04/18 02:06:23;;;;;;;34.15;19.15;;;;;;;10.53;93.39;99275.13;3135780;28;20112;-65
2023/04/18 02:07:55;;;;;;;36.40;19.30;;;;;;;10.54;93.15;99277.66;3135435;28;20093;-65
2023/04/18 02:09:27;;;;;;;35.05;19.52;;;;;;;10.49;93.50;99279.66;3136424;28;20102;-64
2023/04/18 02:11:00;;;;;;;30.73;18.42;;;;;;;10.46;93.20;99277.22;3127985;28;20055;-65
2023/04/18 02:12:33;;;;;;;36.80;20.80;;;;;;;10.42;93.22;99270.50;3132370;28;20121;-64
2023/04/18 02:14:05;;;;;;;35.60;19.63;;;;;;;10.42;93.57;99286.13;3132774;28;20049;-65
2023/04/18 02:15:37;;;;;;;38.60;21.00;;;;;;;10.39;93.67;99284.53;3130864;28;20060;-64
2023/04/18 02:17:09;;;;;;;38.33;20.80;;;;;;;10.40;93.67;99280.16;3136126;28;20048;-65
2023/04/18 02:18:43;;;;;;;39.80;20.63;;;;;;;10.39;93.69;99281.09;3133742;28;20056;-64
2023/04/18 02:20:14;;;;;;;41.42;21.45;;;;;;;10.36;93.74;99276.88;3133926;28;20040;-65
2023/04/18 02:21:46;;;;;;;41.72;22.63;;;;;;;10.36;93.81;99276.03;3136523;28;20051;-65
2023/04/18 02:23:18;;;;;;;38.83;21.30;;;;;;;10.38;93.98;99279.38;3128656;28;20049;-65
2023/04/18 02:24:50;;;;;;;43.60;21.70;;;;;;;10.40;93.69;99282.75;3136304;28;20481;-65
2023/04/18 02:26:24;;;;;;;43.97;21.95;;;;;;;10.41;94.07;99272.28;3132110;28;20251;-64
2023/04/18 02:27:57;;;;;;;44.53;22.55;;;;;;;10.40;94.04;99267.97;3135455;28;20056;-65
2023/04/18 02:29:30;;;;;;;36.25;19.90;;;;;;;10.44;93.91;99260.84;3135128;28;20080;-66
2023/04/18 02:31:01;;;;;;;43.58;20.42;;;;;;;10.45;93.75;99268.56;3128638;28;20418;-65
2023/04/18 02:32:32;;;;;;;39.95;20.83;;;;;;;10.45;93.96;99267.75;3134965;28;20056;-65
2023/04/18 02:34:05;;;;;;;36.83;18.73;;;;;;;10.49;93.75;99269.25;3135322;28;20151;-65
2023/04/18 02:35:37;;;;;;;47.67;19.65;;;;;;;10.49;93.74;99269.25;3123697;28;20049;-64
2023/04/18 02:37:10;;;;;;;38.92;19.77;;;;;;;10.48;94.14;99276.22;3125472;28;20065;-64
2023/04/18 02:38:42;;;;;;;39.47;19.20;;;;;;;10.49;94.22;99274.44;3127629;28;20079;-63
2023/04/18 02:40:14;;;;;;;38.05;18.95;;;;;;;10.48;94.11;99271.00;3132428;28;20514;-64
2023/04/18 02:41:47;;;;;;;40.33;18.88;;;;;;;10.48;93.74;99278.00;3132037;28;20182;-64
2023/04/18 02:43:19;;;;;;;38.38;18.67;;;;;;;10.50;93.82;99280.50;3135651;28;20065;-64
2023/04/18 02:44:51;;;;;;;37.28;17.00;;;;;;;10.48;93.97;99273.63;3135825;28;20542;-64
2023/04/18 02:46:23;;;;;;;37.20;15.20;;;;;;;10.48;93.98;99278.00;3136051;28;20565;-64
2023/04/18 02:47:54;;;;;;;34.97;16.27;;;;;;;10.48;93.73;99275.38;3136201;28;20093;-64
2023/04/18 02:49:26;;;;;;;30.88;16.00;;;;;;;10.42;93.64;99286.97;3135086;28;20053;-64
2023/04/18 02:51:03;;;;;;;24.73;13.57;;;;;;;10.40;94.11;99285.34;3127674;28;20599;-64
2023/04/18 02:52:34;;;;;;;29.63;13.43;;;;;;;10.40;93.75;99290.56;3138179;28;20788;-65
2023/04/18 02:54:06;;;;;;;27.95;13.88;;;;;;;10.33;94.07;99287.44;3119933;28;20048;-64
2023/04/18 02:55:37;;;;;;;35.28;14.63;;;;;;;10.30;94.31;99289.38;3128798;28;20053;-64
2023/04/18 02:57:10;;;;;;;24.08;12.93;;;;;;;10.28;94.04;99292.03;3125473;28;20080;-64
2023/04/18 02:58:42;;;;;;;;;;;;;;;10.20;94.25;99288.97;3136830;28;20059;-64
2023/04/18 03:00:15;;;;;;;23.13;12.98;;;;;;;10.20;94.19;99289.81;3135471;28;19924;-65
2023/04/18 03:01:46;;;;;;;29.50;13.20;;;;;;;10.21;94.43;99291.50;3135226;28;20056;-63
2023/04/18 03:03:17;;;;;;;25.83;13.80;;;;;;;10.24;94.00;99293.94;3135621;28;20486;-65
2023/04/18 03:04:49;;;;;;;26.35;13.15;;;;;;;10.25;94.34;99292.16;3114564;28;20087;-64
2023/04/18 03:06:21;;;;;;;25.45;13.20;;;;;;;10.24;93.88;99286.13;3134550;28;20531;-64
2023/04/18 03:07:53;;;;;;;28.23;14.40;;;;;;;10.20;94.20;99287.22;3125943;28;20052;-65
2023/04/18 03:09:26;;;;;;;25.65;13.45;;;;;;;10.22;93.94;99292.34;3132133;28;20158;-64
2023/04/18 03:10:59;;;;;;;24.13;12.70;;;;;;;9.90;94.27;99235.00;3133485;28;20052;-64
2023/04/18 03:12:32;;;;;;;24.08;12.55;;;;;;;10.17;94.30;99289.97;3135484;28;20454;-64
2023/04/18 03:14:04;;;;;;;21.58;12.95;;;;;;;10.13;94.04;99282.41;3132112;28;20110;-65
2023/04/18 03:15:37;;;;;;;26.27;12.73;;;;;;;10.19;94.09;99292.50;3130578;28;20135;-65
2023/04/18 03:17:09;;;;;;;22.35;12.25;;;;;;;10.19;94.29;99290.72;3135622;28;20566;-64
2023/04/18 03:18:40;;;;;;;28.55;13.27;;;;;;;10.22;93.92;99290.56;3134614;28;20869;-64
2023/04/18 03:20:12;;;;;;;27.70;13.00;;;;;;;10.22;93.99;99284.53;3128175;28;20055;-64
2023/04/18 03:21:44;;;;;;;23.90;12.60;;;;;;;10.23;94.04;99279.25;3127931;28;20513;-65
2023/04/18 03:23:15;;;;;;;25.08;12.90;;;;;;;10.26;94.03;99293.84;3134968;28;20087;-65
2023/04/18 03:24:46;;;;;;;29.20;12.07;;;;;;;10.29;94.07;99295.47;3130234;28;20575;-65
2023/04/18 03:26:19;;;;;;;28.75;13.63;;;;;;;10.31;93.78;99294.50;3135259;28;20056;-65
2023/04/18 03:27:51;;;;;;;27.38;13.10;;;;;;;10.35;93.88;99297.75;3131843;28;20060;-65
2023/04/18 03:29:23;;;;;;;26.67;12.37;;;;;;;10.33;93.84;99292.66;3135564;28;20052;-64
2023/04/18 03:30:55;;;;;;;25.33;12.35;;;;;;;10.37;93.60;99301.13;3128196;28;20322;-65
2023/04/18 03:32:27;;;;;;;22.67;12.18;;;;;;;10.37;93.79;99296.75;3134533;28;20556;-64
2023/04/18 03:33:59;;;;;;;21.65;10.95;;;;;;;10.38;93.65;99288.06;3134923;28;20626;-65
2023/04/18 03:35:32;;;;;;;27.15;11.60;;;;;;;10.39;93.33;99291.50;3124931;28;20534;-65
2023/04/18 03:37:03;;;;;;;24.10;12.75;;;;;;;10.41;93.72;99292.22;3125684;28;20503;-65
2023/04/18 03:38:36;;;;;;;22.33;11.75;;;;;;;10.39;93.68;99294.09;3125007;28;20053;-65
2023/04/18 03:40:09;;;;;;;64.57;28.33;;;;;;;10.35;93.67;99296.03;3132312;28;20493;-64
2023/04/18 03:41:41;;;;;;;26.63;13.35;;;;;;;10.32;93.63;99300.53;3135172;28;20125;-65
2023/04/18 03:43:15;;;;;;;27.25;13.85;;;;;;;10.30;93.43;99305.00;3135292;28;20044;-64
2023/04/18 03:44:46;;;;;;;27.52;13.25;;;;;;;10.28;93.57;99296.41;3135036;28;20052;-64
2023/04/18 03:46:20;;;;;;;26.27;13.43;;;;;;;10.32;93.22;99300.53;3128122;28;20084;-64
2023/04/18 03:47:52;;;;;;;23.50;11.80;;;;;;;10.29;93.16;99300.69;3129183;28;20054;-64
2023/04/18 03:49:24;;;;;;;26.60;12.73;;;;;;;10.25;92.91;99305.19;3134685;28;20090;-65
2023/04/18 03:50:55;;;;;;;30.15;13.30;;;;;;;10.25;92.90;99305.19;3127988;28;20052;-65
2023/04/18 03:52:27;;;;;;;26.45;13.13;;;;;;;10.21;93.15;99301.91;3134747;28;20390;-65
2023/04/18 03:53:59;;;;;;;25.15;13.50;;;;;;;10.20;93.25;99301.97;3130969;28;20658;-65
2023/04/18 03:55:31;;;;;;;29.80;15.20;;;;;;;10.19;92.88;99308.09;3135442;28;20158;-65
2023/04/18 03:57:03;;;;;;;31.58;17.50;;;;;;;10.15;93.09;99296.19;3126102;28;20053;-65
2023/04/18 03:58:37;;;;;;;26.33;14.82;;;;;;;10.21;93.17;99304.50;3134553;28;20086;-66
2023/04/18 04:00:09;;;;;;;;;;;;;;;10.15;92.87;99302.22;3135308;28;20860;-65
2023/04/18 04:01:41;;;;;;;29.08;14.68;;;;;;;9.85;93.16;99259.53;3135495;28;19925;-65
2023/04/18 04:03:12;;;;;;;34.67;17.80;;;;;;;10.16;93.21;99316.91;3129791;28;20106;-65
2023/04/18 04:04:44;;;;;;;33.58;16.30;;;;;;;10.18;93.33;99312.47;3131144;28;20526;-66
2023/04/18 04:06:16;;;;;;;32.85;14.88;;;;;;;10.18;93.19;99317.69;3133695;28;20060;-65
2023/04/18 04:07:48;;;;;;;28.85;14.98;;;;;;;10.19;93.27;99321.94;3133502;28;20044;-65
2023/04/18 04:09:20;;;;;;;29.05;14.40;;;;;;;10.18;93.22;99311.63;3126276;28;20619;-65
2023/04/18 04:10:52;;;;;;;33.10;14.55;;;;;;;10.20;93.09;99318.44;3129622;28;20533;-65
2023/04/18 04:12:24;;;;;;;30.85;15.48;;;;;;;10.18;93.18;99317.69;3111056;28;20057;-66
2023/04/18 04:13:57;;;;;;;36.58;15.05;;;;;;;10.16;93.50;99313.47;3121747;28;20080;-66
2023/04/18 04:15:30;;;;;;;30.15;14.77;;;;;;;10.18;93.14;99319.44;3132018;28;20828;-65
2023/04/18 04:17:02;;;;;;;29.20;14.50;;;;;;;10.18;93.43;99325.47;3134767;28;20129;-65
2023/04/18 04:18:34;;;;;;;32.13;14.55;;;;;;;10.17;93.11;99323.78;3134590;28;20118;-66
2023/04/18 04:20:06;;;;;;;27.65;14.50;;;;;;;10.13;93.50;99326.63;3127069;28;20052;-66
2023/04/18 04:21:38;;;;;;;34.58;14.77;;;;;;;10.12;93.30;99328.41;3134603;28;20094;-65
2023/04/18 04:23:10;;;;;;;31.25;14.30;;;;;;;10.15;93.55;99333.44;3129507;28;20320;-67
2023/04/18 04:24:42;;;;;;;36.15;13.95;;;;;;;10.11;93.42;99326.69;3135635;28;20071;-67
2023/04/18 04:26:14;;;;;;;30.83;14.77;;;;;;;10.13;93.71;99330.06;3135729;28;20053;-67
2023/04/18 04:27:48;;;;;;;36.85;16.05;;;;;;;10.15;93.46;99330.84;3135797;28;20149;-66
2023/04/18 04:29:22;;;;;;;30.27;15.45;;;;;;;10.15;93.43;99335.22;3135628;28;20502;-67
2023/04/18 04:30:55;;;;;;;35.83;15.02;;;;;;;10.16;93.49;99329.91;3128873;28;20160;-69
2023/04/18 04:32:27;;;;;;;30.97;14.40;;;;;;;10.16;93.41;99331.69;3134401;28;20059;-75
2023/04/18 04:33:59;;;;;;;43.13;15.48;;;;;;;10.17;93.31;99342.00;3134537;28;20322;-68
2023/04/18 04:35:33;;;;;;;35.67;16.90;;;;;;;10.18;93.24;99333.28;3124520;28;20092;-67
2023/04/18 04:37:05;;;;;;;33.88;14.80;;;;;;;10.18;93.54;99340.25;3124209;28;20061;-67
2023/04/18 04:38:39;;;;;;;35.47;15.57;;;;;;;10.15;93.48;99333.44;3125489;28;20110;-69
2023/04/18 04:40:12;;;;;;;36.08;14.95;;;;;;;10.15;93.28;99338.66;3131673;28;20101;-68
2023/04/18 04:41:45;;;;;;;37.63;15.52;;;;;;;10.09;93.43;99333.75;3135684;28;20506;-67
2023/04/18 04:43:19;;;;;;;72.53;37.42;;;;;;;10.14;93.55;99336.94;3136138;28;20076;-65
2023/04/18 04:44:53;;;;;;;;;;;;;;;10.11;93.44;99342.31;3138053;28;20058;-74
2023/04/18 04:46:25;;;;;;;40.33;19.55;;;;;;;10.15;93.77;99343.03;3136743;28;19942;-65
2023/04/18 04:47:57;;;;;;;39.95;17.67;;;;;;;10.18;93.69;99345.47;3137477;28;20255;-72
2023/04/18 04:49:30;;;;;;;35.58;17.02;;;;;;;10.21;93.57;99334.91;3135633;28;20056;-70
2023/04/18 04:51:02;;;;;;;36.67;15.68;;;;;;;10.18;93.34;99342.88;3130219;28;20894;-68
2023/04/18 04:52:33;;;;;;;34.85;16.60;;;;;;;10.18;93.72;99338.50;3124882;28;20141;-68
2023/04/18 04:54:05;;;;;;;34.97;16.15;;;;;;;10.12;93.96;99333.59;3140178;28;20056;-73
2023/04/18 04:55:38;;;;;;;30.27;15.63;;;;;;;10.15;93.70;99348.22;3140573;28;20504;-69
2023/04/18 04:57:10;;;;;;;40.63;15.63;;;;;;;10.14;94.26;99352.56;3136564;28;20614;-70
2023/04/18 04:58:42;;;;;;;36.97;15.27;;;;;;;10.14;94.09;99344.75;3134757;28;20163;-74
2023/04/18 05:00:19;;;;;;;40.15;17.02;;;;;;;10.16;94.18;99349.91;3134272;28;20044;-69
2023/04/18 05:01:52;;;;;;;32.40;15.77;;;;;;;10.14;94.05;99343.91;3139822;28;20570;-70
2023/04/18 05:03:24;;;;;;;42.08;16.25;;;;;;;10.13;93.76;99353.50;3140954;28;20908;-70
2023/04/18 05:04:56;;;;;;;31.77;15.48;;;;;;;10.12;93.99;99353.59;3135297;28;20501;-69
2023/04/18 05:06:28;;;;;;;33.33;15.48;;;;;;;10.13;94.18;99357.84;3128748;28;20162;-71
2023/04/18 05:08:00;;;;;;;35.05;14.80;;;;;;;10.13;93.98;99356.09;3136302;28;20275;-70
2023/04/18 05:09:32;;;;;;;39.78;15.77;;;;;;;10.12;94.26;99357.03;3137989;28;20053;-70
2023/04/18 05:11:04;;;;;;;31.70;15.60;;;;;;;10.15;93.98;99358.63;3140787;28;20498;-71
2023/04/18 05:12:36;;;;;;;37.70;17.02;;;;;;;10.17;93.75;99357.59;3140924;28;20643;-69
2023/04/18 05:14:08;;;;;;;35.67;17.35;;;;;;;10.21;93.89;99360.91;3137733;28;20080;-70
2023/04/18 05:15:41;;;;;;;35.88;16.05;;;;;;;10.15;93.57;99351.66;3132567;28;20080;-71
2023/04/18 05:17:17;;;;;;;34.00;15.23;;;;;;;10.18;93.93;99367.13;3134880;28;20052;-72
2023/04/18 05:18:49;;;;;;;37.60;16.00;;;;;;;10.17;94.04;99360.22;3140820;28;20049;-69
2023/04/18 05:20:22;;;;;;;34.35;16.30;;;;;;;10.20;93.87;99360.09;3133822;28;20988;-70
2023/04/18 05:21:55;;;;;;;35.30;16.00;;;;;;;10.23;93.98;99357.31;3139523;28;20821;-71
2023/04/18 05:23:40;;;;;;;35.78;15.68;;;;;;;10.26;94.08;99366.72;3140656;28;20049;-68
2023/04/18 05:25:15;;;;;;;35.40;15.95;;;;;;;10.30;93.98;99367.47;3141060;28;20137;-71
2023/04/18 05:26:47;;;;;;;37.22;16.67;;;;;;;10.31;94.04;99361.31;3140496;28;20053;-70
2023/04/18 05:28:33;;;;;;;37.15;17.15;;;;;;;10.08;93.83;99324.25;3140193;28;20060;-72
2023/04/18 05:30:10;;;;;;;33.47;15.88;;;;;;;10.37;94.07;99366.22;3139835;28;20551;-73
2023/04/18 05:31:49;;;;;;;34.40;16.70;;;;;;;10.35;93.95;99361.09;3135866;28;20521;-73
2023/04/18 05:33:21;;;;;;;31.67;15.50;;;;;;;10.37;93.91;99367.03;3140454;28;20116;-71
2023/04/18 05:34:53;;;;;;;30.48;15.23;;;;;;;10.27;93.76;99352.84;3135378;28;20067;-72
2023/04/18 05:36:26;;;;;;;32.67;16.70;;;;;;;10.34;93.80;99362.00;3128133;28;20159;-72
2023/04/18 05:38:01;;;;;;;37.17;16.23;;;;;;;10.36;93.88;99364.53;3135566;28;20064;-72
2023/04/18 05:39:34;;;;;;;36.30;15.70;;;;;;;10.39;93.53;99356.56;3133726;28;20120;-72
2023/04/18 05:41:06;;;;;;;36.28;16.98;;;;;;;10.41;93.38;99359.91;3140581;28;20059;-72
2023/04/18 05:42:37;;;;;;;36.83;17.23;;;;;;;10.42;93.41;99362.44;3140078;28;20052;-70
2023/04/18 05:44:10;;;;;;;36.30;16.73;;;;;;;10.44;93.21;99371.03;3140123;28;20052;-72
2023/04/18 05:45:42;;;;;;;33.13;16.42;;;;;;;10.41;93.22;99360.78;3140450;28;20052;-73
2023/04/18 05:47:16;;;;;;;34.45;16.73;;;;;;;10.47;93.36;99360.47;3140251;28;20048;-69
2023/04/18 05:48:48;;;;;;;36.45;16.17;;;;;;;10.48;93.13;99361.31;3140115;28;20160;-71
2023/04/18 05:50:20;;;;;;;33.00;15.65;;;;;;;10.47;93.13;99359.63;3135954;28;20109;-70
2023/04/18 05:51:52;;;;;;;29.02;15.63;;;;;;;10.45;93.41;99345.84;3133219;28;20173;-70
2023/04/18 05:53:24;;;;;;;30.85;15.75;;;;;;;10.57;93.26;99365.19;3129902;28;20127;-69
2023/04/18 05:54:56;;;;;;;30.90;16.95;;;;;;;10.59;93.03;99365.94;3139777;28;20057;-69
2023/04/18 05:56:28;;;;;;;33.40;16.83;;;;;;;10.59;93.22;99372.00;3129504;28;20183;-70
2023/04/18 05:58:00;;;;;;;32.58;16.10;;;;;;;10.63;92.78;99370.06;3134031;28;20139;-69
2023/04/18 05:59:32;;;;;;;33.92;15.90;;;;;;;10.65;92.94;99368.25;3115830;28;20151;-71
2023/04/18 06:01:06;;;;;;;34.85;18.42;;;;;;;10.64;92.57;99364.78;3139595;28;20057;-68
2023/04/18 06:02:40;;;;;;;32.67;15.80;;;;;;;10.66;92.71;99370.75;3139987;28;20056;-69
2023/04/18 06:04:12;;;;;;;32.95;16.38;;;;;;;10.69;92.31;99375.78;3137688;28;20488;-71
2023/04/18 06:05:44;;;;;;;34.53;16.85;;;;;;;10.70;92.55;99387.03;3137592;28;20056;-67
2023/04/18 06:07:15;;;;;;;31.55;16.50;;;;;;;10.64;92.13;99380.41;3137542;28;20048;-70
2023/04/18 06:08:47;;;;;;;27.77;15.88;;;;;;;10.62;92.51;99376.22;3139742;28;20477;-70
2023/04/18 06:10:19;;;;;;;33.75;15.65;;;;;;;10.62;92.35;99374.44;3139214;28;20048;-69
2023/04/18 06:11:51;;;;;;;30.10;17.65;;;;;;;10.61;92.34;99372.75;3130396;28;20149;-68
2023/04/18 06:13:23;;;;;;;34.08;17.25;;;;;;;10.59;92.30;99369.41;3121284;28;20056;-67
2023/04/18 06:14:56;;;;;;;35.53;17.35;;;;;;;10.65;92.05;99374.28;3125277;28;20044;-69
2023/04/18 06:16:28;;;;;;;32.45;17.20;;;;;;;10.67;92.26;99372.41;3120052;28;20060;-70
2023/04/18 06:18:01;;;;;;;33.78;16.35;;;;;;;10.70;92.04;99371.41;3121050;28;20053;-69
2023/04/18 06:19:33;;;;;;;28.70;16.63;;;;;;;10.70;91.79;99369.66;3121810;28;20574;-69
2023/04/18 06:21:06;;;;;;;30.85;16.73;;;;;;;10.75;91.78;99369.44;3118727;28;20085;-75
2023/04/18 06:22:37;;;;;;;31.50;17.37;;;;;;;10.66;91.97;99354.28;3129335;28;20052;-74
2023/04/18 06:24:09;;;;;;;30.80;16.88;;;;;;;10.81;91.72;99383.88;3138400;28;20135;-73
2023/04/18 06:25:41;;;;;;;31.38;15.65;;;;;;;10.81;91.90;99373.47;3139962;28;20139;-73
2023/04/18 06:27:14;;;;;;;33.08;17.65;;;;;;;10.81;91.69;99369.09;3139921;28;20117;-74
2023/04/18 06:28:46;;;;;;;28.38;15.32;;;;;;;10.87;91.47;99378.34;3139808;28;20056;-74
2023/04/18 06:30:20;;;;;;;34.80;17.90;;;;;;;10.92;91.55;99371.16;3138017;28;20048;-76
2023/04/18 06:31:52;;;;;;;30.60;16.30;;;;;;;10.89;91.53;99379.13;3134845;28;20572;-76
2023/04/18 06:33:26;;;;;;;31.88;15.48;;;;;;;10.89;91.30;99376.53;3139791;28;20523;-72
2023/04/18 06:34:58;;;;;;;30.25;16.92;;;;;;;10.90;91.18;99376.41;3134106;28;20052;-73
2023/04/18 06:36:30;;;;;;;27.80;16.40;;;;;;;10.85;90.99;99361.97;3133299;28;20859;-71
2023/04/18 06:38:02;;;;;;;26.35;14.63;;;;;;;10.86;91.03;99361.06;3125780;28;20508;-72
2023/04/18 06:39:34;;;;;;;26.88;15.23;;;;;;;10.89;90.94;99360.88;3131276;28;20049;-71
2023/04/18 06:41:06;;;;;;;29.88;15.90;;;;;;;10.84;90.91;99358.50;3139788;28;20049;-72
2023/04/18 06:42:39;;;;;;;26.90;15.18;;;;;;;10.98;90.75;99378.63;3138816;28;20064;-69
2023/04/18 06:44:11;;;;;;;32.70;16.70;;;;;;;11.01;90.59;99365.44;3139600;28;20056;-68
2023/04/18 06:45:43;;;;;;;31.50;15.65;;;;;;;11.06;90.50;99366.03;3130812;28;20053;-70
2023/04/18 06:47:15;;;;;;;32.88;16.88;;;;;;;11.10;90.57;99369.31;3139537;28;20064;-69
2023/04/18 06:48:48;;;;;;;31.98;16.38;;;;;;;11.12;90.60;99368.31;3139919;28;20375;-68
2023/04/18 06:50:20;;;;;;;;;;;;;;;11.09;90.20;99365.00;3130780;28;20152;-69
2023/04/18 06:51:52;;;;;;;26.65;14.23;;;;;;;11.11;90.49;99364.00;3132126;28;19929;-69
2023/04/18 06:53:24;;;;;;;31.15;16.27;;;;;;;11.18;90.46;99363.66;3133929;28;20376;-69
2023/04/18 06:54:56;;;;;;;33.22;14.93;;;;;;;11.20;90.03;99365.28;3136349;28;20052;-69
2023/04/18 06:56:28;;;;;;;25.70;14.30;;;;;;;11.15;90.00;99356.84;3134445;28;20091;-68
2023/04/18 06:58:00;;;;;;;26.25;12.98;;;;;;;11.25;90.17;99363.25;3139284;28;20068;-69
2023/04/18 06:59:34;;;;;;;27.77;15.23;;;;;;;11.28;89.73;99364.88;3137751;28;20049;-71
2023/04/18 07:01:06;;;;;;;25.15;14.18;;;;;;;11.30;89.57;99366.47;3137276;28;20068;-72
2023/04/18 07:02:39;;;;;;;27.17;15.20;;;;;;;11.31;89.44;99373.34;3138900;28;20060;-72
2023/04/18 07:04:13;;;;;;;;;;;;;;;11.20;89.13;99370.47;3139987;28;20505;-73
2023/04/18 07:05:45;;;;;;;26.08;14.02;;;;;;;11.24;89.53;99374.63;3130837;28;19994;-76